sensor_id;sensor_type;location;lat;lon;timestamp;P1;durP1;ratioP1;P2;durP2;ratioP2
8825;SDS011;4449;50.872;4.714;2024-01-15T00:03:50;29.92;;;15.68;;
8825;SDS011;4449;50.872;4.714;2024-01-15T00:06:18;26.60;;;16.33;;
8825;SDS011;4449;50.872;4.714;2024-01-15T00:08:46;26.15;;;15.68;;
8825;SDS011;4449;50.872;4.714;2024-01-15T00:11:14;25.77;;;15.25;;
8825;SDS011;4449;50.872;4.714;2024-01-15T00:13:41;26.50;;;16.67;;
8825;SDS011;4449;50.872;4.714;2024-01-15T00:16:09;27.33;;;15.67;;
8825;SDS011;4449;50.872;4.714;2024-01-15T00:18:37;27.47;;;14.80;;
8825;SDS011;4449;50.872;4.714;2024-01-15T00:21:06;23.63;;;14.70;;
8825;SDS011;4449;50.872;4.714;2024-01-15T00:23:34;26.53;;;15.40;;
8825;SDS011;4449;50.872;4.714;2024-01-15T00:26:02;22.60;;;13.67;;
8825;SDS011;4449;50.872;4.714;2024-01-15T00:28:29;21.07;;;13.90;;
8825;SDS011;4449;50.872;4.714;2024-01-15T00:30:57;21.80;;;14.33;;
8825;SDS011;4449;50.872;4.714;2024-01-15T00:33:25;22.87;;;14.23;;
8825;SDS011;4449;50.872;4.714;2024-01-15T00:35:52;25.60;;;13.97;;
8825;SDS011;4449;50.872;4.714;2024-01-15T00:38:22;21.93;;;13.73;;
8825;SDS011;4449;50.872;4.714;2024-01-15T00:40:49;23.70;;;13.70;;
8825;SDS011;4449;50.872;4.714;2024-01-15T00:43:17;23.97;;;14.00;;
8825;SDS011;4449;50.872;4.714;2024-01-15T00:45:45;20.00;;;12.80;;
8825;SDS011;4449;50.872;4.714;2024-01-15T00:48:12;20.17;;;12.57;;
8825;SDS011;4449;50.872;4.714;2024-01-15T00:50:40;23.57;;;13.80;;
8825;SDS011;4449;50.872;4.714;2024-01-15T00:53:08;20.00;;;12.53;;
8825;SDS011;4449;50.872;4.714;2024-01-15T00:55:37;21.10;;;13.27;;
8825;SDS011;4449;50.872;4.714;2024-01-15T00:58:05;17.77;;;12.20;;
8825;SDS011;4449;50.872;4.714;2024-01-15T01:00:32;23.57;;;12.03;;
8825;SDS011;4449;50.872;4.714;2024-01-15T01:03:00;21.77;;;12.77;;
8825;SDS011;4449;50.872;4.714;2024-01-15T01:05:28;19.03;;;12.10;;
8825;SDS011;4449;50.872;4.714;2024-01-15T01:07:56;18.17;;;12.50;;
8825;SDS011;4449;50.872;4.714;2024-01-15T01:10:23;21.03;;;11.73;;
8825;SDS011;4449;50.872;4.714;2024-01-15T01:12:53;19.40;;;12.37;;
8825;SDS011;4449;50.872;4.714;2024-01-15T01:15:21;17.63;;;11.70;;
8825;SDS011;4449;50.872;4.714;2024-01-15T01:17:49;16.43;;;11.23;;
8825;SDS011;4449;50.872;4.714;2024-01-15T01:20:17;16.10;;;11.27;;
8825;SDS011;4449;50.872;4.714;2024-01-15T01:22:45;19.80;;;12.00;;
8825;SDS011;4449;50.872;4.714;2024-01-15T01:25:13;16.10;;;11.27;;
8825;SDS011;4449;50.872;4.714;2024-01-15T01:27:41;15.03;;;10.63;;
8825;SDS011;4449;50.872;4.714;2024-01-15T01:30:10;19.20;;;10.43;;
8825;SDS011;4449;50.872;4.714;2024-01-15T01:32:38;17.27;;;10.57;;
8825;SDS011;4449;50.872;4.714;2024-01-15T01:35:05;14.07;;;9.67;;
8825;SDS011;4449;50.872;4.714;2024-01-15T01:37:33;15.37;;;9.63;;
8825;SDS011;4449;50.872;4.714;2024-01-15T01:40:01;15.40;;;10.13;;
8825;SDS011;4449;50.872;4.714;2024-01-15T01:42:29;12.90;;;9.50;;
8825;SDS011;4449;50.872;4.714;2024-01-15T01:44:56;13.97;;;9.30;;
8825;SDS011;4449;50.872;4.714;2024-01-15T01:47:26;17.37;;;9.47;;
8825;SDS011;4449;50.872;4.714;2024-01-15T01:49:53;15.57;;;9.27;;
8825;SDS011;4449;50.872;4.714;2024-01-15T01:52:21;13.43;;;9.27;;
8825;SDS011;4449;50.872;4.714;2024-01-15T01:54:49;14.03;;;10.03;;
8825;SDS011;4449;50.872;4.714;2024-01-15T01:57:17;13.27;;;8.50;;
8825;SDS011;4449;50.872;4.714;2024-01-15T01:59:45;9.23;;;8.23;;
8825;SDS011;4449;50.872;4.714;2024-01-15T02:02:13;12.33;;;9.03;;
8825;SDS011;4449;50.872;4.714;2024-01-15T02:04:42;10.20;;;8.50;;
8825;SDS011;4449;50.872;4.714;2024-01-15T02:07:10;13.27;;;9.10;;
8825;SDS011;4449;50.872;4.714;2024-01-15T02:09:38;11.00;;;8.40;;
8825;SDS011;4449;50.872;4.714;2024-01-15T02:12:06;13.53;;;9.53;;
8825;SDS011;4449;50.872;4.714;2024-01-15T02:14:34;11.60;;;9.13;;
8825;SDS011;4449;50.872;4.714;2024-01-15T02:17:02;14.83;;;9.03;;
8825;SDS011;4449;50.872;4.714;2024-01-15T02:19:29;11.73;;;7.70;;
8825;SDS011;4449;50.872;4.714;2024-01-15T02:21:58;9.80;;;8.13;;
8825;SDS011;4449;50.872;4.714;2024-01-15T02:24:27;12.47;;;8.60;;
8825;SDS011;4449;50.872;4.714;2024-01-15T02:26:55;9.83;;;8.03;;
8825;SDS011;4449;50.872;4.714;2024-01-15T02:29:23;14.63;;;8.17;;
8825;SDS011;4449;50.872;4.714;2024-01-15T02:31:50;9.13;;;7.57;;
8825;SDS011;4449;50.872;4.714;2024-01-15T02:34:18;10.03;;;7.07;;
8825;SDS011;4449;50.872;4.714;2024-01-15T02:36:45;8.67;;;7.70;;
8825;SDS011;4449;50.872;4.714;2024-01-15T02:39:13;8.10;;;7.27;;
8825;SDS011;4449;50.872;4.714;2024-01-15T02:41:42;8.97;;;7.57;;
8825;SDS011;4449;50.872;4.714;2024-01-15T02:44:09;9.73;;;7.60;;
8825;SDS011;4449;50.872;4.714;2024-01-15T02:46:37;8.13;;;6.97;;
8825;SDS011;4449;50.872;4.714;2024-01-15T02:49:05;9.60;;;6.93;;
8825;SDS011;4449;50.872;4.714;2024-01-15T02:51:32;11.63;;;7.67;;
8825;SDS011;4449;50.872;4.714;2024-01-15T02:54:00;9.90;;;6.90;;
8825;SDS011;4449;50.872;4.714;2024-01-15T02:56:28;8.30;;;7.10;;
8825;SDS011;4449;50.872;4.714;2024-01-15T02:58:57;11.10;;;6.93;;
8825;SDS011;4449;50.872;4.714;2024-01-15T03:01:25;10.90;;;6.97;;
8825;SDS011;4449;50.872;4.714;2024-01-15T03:03:53;7.73;;;6.13;;
8825;SDS011;4449;50.872;4.714;2024-01-15T03:06:20;8.67;;;6.33;;
8825;SDS011;4449;50.872;4.714;2024-01-15T03:08:48;10.43;;;6.63;;
8825;SDS011;4449;50.872;4.714;2024-01-15T03:11:16;7.63;;;6.50;;
8825;SDS011;4449;50.872;4.714;2024-01-15T03:13:44;10.40;;;6.47;;
8825;SDS011;4449;50.872;4.714;2024-01-15T03:16:13;8.07;;;6.20;;
8825;SDS011;4449;50.872;4.714;2024-01-15T03:18:40;9.20;;;6.07;;
8825;SDS011;4449;50.872;4.714;2024-01-15T03:21:08;7.57;;;6.20;;
8825;SDS011;4449;50.872;4.714;2024-01-15T03:23:36;9.27;;;6.63;;
8825;SDS011;4449;50.872;4.714;2024-01-15T03:26:04;7.40;;;6.00;;
8825;SDS011;4449;50.872;4.714;2024-01-15T03:28:31;10.20;;;6.77;;
8825;SDS011;4449;50.872;4.714;2024-01-15T03:30:59;6.33;;;5.73;;
8825;SDS011;4449;50.872;4.714;2024-01-15T03:33:28;8.63;;;6.30;;
8825;SDS011;4449;50.872;4.714;2024-01-15T03:35:56;8.40;;;6.27;;
8825;SDS011;4449;50.872;4.714;2024-01-15T03:38:23;9.07;;;6.50;;
8825;SDS011;4449;50.872;4.714;2024-01-15T03:40:50;8.60;;;6.60;;
8825;SDS011;4449;50.872;4.714;2024-01-15T03:43:17;7.87;;;6.50;;
8825;SDS011;4449;50.872;4.714;2024-01-15T03:45:45;9.23;;;6.40;;
8825;SDS011;4449;50.872;4.714;2024-01-15T03:48:13;8.90;;;6.13;;
8825;SDS011;4449;50.872;4.714;2024-01-15T03:50:42;9.20;;;6.50;;
8825;SDS011;4449;50.872;4.714;2024-01-15T03:53:10;11.27;;;7.33;;
8825;SDS011;4449;50.872;4.714;2024-01-15T03:55:37;10.40;;;7.93;;
8825;SDS011;4449;50.872;4.714;2024-01-15T03:58:05;9.90;;;7.63;;
8825;SDS011;4449;50.872;4.714;2024-01-15T04:00:33;11.13;;;9.00;;
8825;SDS011;4449;50.872;4.714;2024-01-15T04:03:01;10.63;;;8.33;;
8825;SDS011;4449;50.872;4.714;2024-01-15T04:05:28;13.03;;;9.67;;
8825;SDS011;4449;50.872;4.714;2024-01-15T04:07:57;13.67;;;8.77;;
8825;SDS011;4449;50.872;4.714;2024-01-15T04:10:25;12.73;;;9.50;;
8825;SDS011;4449;50.872;4.714;2024-01-15T04:12:53;12.33;;;9.20;;
8825;SDS011;4449;50.872;4.714;2024-01-15T04:15:21;15.33;;;10.33;;
8825;SDS011;4449;50.872;4.714;2024-01-15T04:17:48;16.97;;;10.97;;
8825;SDS011;4449;50.872;4.714;2024-01-15T04:20:16;13.60;;;10.13;;
8825;SDS011;4449;50.872;4.714;2024-01-15T04:22:44;17.03;;;11.13;;
8825;SDS011;4449;50.872;4.714;2024-01-15T04:25:13;17.23;;;11.17;;
8825;SDS011;4449;50.872;4.714;2024-01-15T04:27:41;16.93;;;11.90;;
8825;SDS011;4449;50.872;4.714;2024-01-15T04:30:09;15.27;;;11.63;;
8825;SDS011;4449;50.872;4.714;2024-01-15T04:32:37;21.30;;;12.90;;
8825;SDS011;4449;50.872;4.714;2024-01-15T04:35:04;20.00;;;13.20;;
8825;SDS011;4449;50.872;4.714;2024-01-15T04:37:32;21.00;;;13.17;;
8825;SDS011;4449;50.872;4.714;2024-01-15T04:40:00;20.90;;;13.37;;
8825;SDS011;4449;50.872;4.714;2024-01-15T04:42:30;17.93;;;13.93;;
8825;SDS011;4449;50.872;4.714;2024-01-15T04:44:58;19.67;;;13.63;;
8825;SDS011;4449;50.872;4.714;2024-01-15T04:47:26;25.07;;;13.47;;
8825;SDS011;4449;50.872;4.714;2024-01-15T04:49:54;21.23;;;14.27;;
8825;SDS011;4449;50.872;4.714;2024-01-15T04:52:21;22.60;;;14.03;;
8825;SDS011;4449;50.872;4.714;2024-01-15T04:54:49;19.30;;;13.63;;
8825;SDS011;4449;50.872;4.714;2024-01-15T04:57:17;24.20;;;14.50;;
8825;SDS011;4449;50.872;4.714;2024-01-15T04:59:46;22.97;;;13.53;;
8825;SDS011;4449;50.872;4.714;2024-01-15T05:02:14;23.17;;;14.90;;
8825;SDS011;4449;50.872;4.714;2024-01-15T05:04:42;19.57;;;14.53;;
8825;SDS011;4449;50.872;4.714;2024-01-15T05:07:09;20.00;;;13.57;;
8825;SDS011;4449;50.872;4.714;2024-01-15T05:09:37;21.03;;;14.17;;
8825;SDS011;4449;50.872;4.714;2024-01-15T05:12:05;22.43;;;14.53;;
8825;SDS011;4449;50.872;4.714;2024-01-15T05:14:33;18.73;;;12.80;;
8825;SDS011;4449;50.872;4.714;2024-01-15T05:17:02;20.47;;;13.93;;
8825;SDS011;4449;50.872;4.714;2024-01-15T05:19:30;19.30;;;12.60;;
8825;SDS011;4449;50.872;4.714;2024-01-15T05:21:57;22.27;;;14.00;;
8825;SDS011;4449;50.872;4.714;2024-01-15T05:24:25;19.57;;;11.53;;
8825;SDS011;4449;50.872;4.714;2024-01-15T05:26:53;17.77;;;12.33;;
8825;SDS011;4449;50.872;4.714;2024-01-15T05:29:21;18.87;;;11.10;;
8825;SDS011;4449;50.872;4.714;2024-01-15T05:31:48;15.20;;;11.13;;
8825;SDS011;4449;50.872;4.714;2024-01-15T05:34:17;17.03;;;10.87;;
8825;SDS011;4449;50.872;4.714;2024-01-15T05:36:45;20.37;;;11.20;;
8825;SDS011;4449;50.872;4.714;2024-01-15T05:39:13;19.20;;;11.60;;
8825;SDS011;4449;50.872;4.714;2024-01-15T05:41:40;17.27;;;11.00;;
8825;SDS011;4449;50.872;4.714;2024-01-15T05:44:08;16.33;;;11.30;;
8825;SDS011;4449;50.872;4.714;2024-01-15T05:46:36;13.80;;;10.03;;
8825;SDS011;4449;50.872;4.714;2024-01-15T05:49:04;16.27;;;11.27;;
8825;SDS011;4449;50.872;4.714;2024-01-15T05:51:33;14.60;;;10.27;;
8825;SDS011;4449;50.872;4.714;2024-01-15T05:54:01;15.83;;;9.53;;
8825;SDS011;4449;50.872;4.714;2024-01-15T05:56:29;13.63;;;9.23;;
8825;SDS011;4449;50.872;4.714;2024-01-15T05:58:56;10.60;;;8.05;;
8825;SDS011;4449;50.872;4.714;2024-01-15T06:01:24;11.87;;;8.40;;
8825;SDS011;4449;50.872;4.714;2024-01-15T06:03:52;11.97;;;7.40;;
8825;SDS011;4449;50.872;4.714;2024-01-15T06:06:19;13.77;;;8.63;;
8825;SDS011;4449;50.872;4.714;2024-01-15T06:08:49;11.40;;;7.53;;
8825;SDS011;4449;50.872;4.714;2024-01-15T06:11:16;14.37;;;6.67;;
8825;SDS011;4449;50.872;4.714;2024-01-15T06:13:44;9.30;;;5.93;;
8825;SDS011;4449;50.872;4.714;2024-01-15T06:16:13;9.27;;;7.10;;
8825;SDS011;4449;50.872;4.714;2024-01-15T06:18:42;11.27;;;6.13;;
8825;SDS011;4449;50.872;4.714;2024-01-15T06:21:08;6.37;;;5.30;;
8825;SDS011;4449;50.872;4.714;2024-01-15T06:23:38;6.97;;;5.17;;
8825;SDS011;4449;50.872;4.714;2024-01-15T06:26:07;7.78;;;5.55;;
8825;SDS011;4449;50.872;4.714;2024-01-15T06:28:35;5.73;;;5.20;;
8825;SDS011;4449;50.872;4.714;2024-01-15T06:31:02;7.93;;;5.67;;
8825;SDS011;4449;50.872;4.714;2024-01-15T06:33:31;7.33;;;4.93;;
8825;SDS011;4449;50.872;4.714;2024-01-15T06:35:58;5.13;;;4.63;;
8825;SDS011;4449;50.872;4.714;2024-01-15T06:38:26;6.37;;;4.40;;
8825;SDS011;4449;50.872;4.714;2024-01-15T06:40:54;6.23;;;4.70;;
8825;SDS011;4449;50.872;4.714;2024-01-15T06:43:23;6.10;;;4.40;;
8825;SDS011;4449;50.872;4.714;2024-01-15T06:45:51;7.45;;;4.70;;
8825;SDS011;4449;50.872;4.714;2024-01-15T06:48:18;6.17;;;4.20;;
8825;SDS011;4449;50.872;4.714;2024-01-15T06:50:46;4.90;;;3.90;;
8825;SDS011;4449;50.872;4.714;2024-01-15T06:53:14;7.23;;;3.90;;
8825;SDS011;4449;50.872;4.714;2024-01-15T06:55:41;4.57;;;3.80;;
8825;SDS011;4449;50.872;4.714;2024-01-15T06:58:09;5.60;;;4.25;;
8825;SDS011;4449;50.872;4.714;2024-01-15T07:00:38;5.00;;;3.50;;
8825;SDS011;4449;50.872;4.714;2024-01-15T07:03:07;4.33;;;3.50;;
8825;SDS011;4449;50.872;4.714;2024-01-15T07:05:34;6.37;;;3.50;;
8825;SDS011;4449;50.872;4.714;2024-01-15T07:08:02;5.93;;;3.80;;
8825;SDS011;4449;50.872;4.714;2024-01-15T07:10:30;3.97;;;3.67;;
8825;SDS011;4449;50.872;4.714;2024-01-15T07:12:58;5.87;;;3.20;;
8825;SDS011;4449;50.872;4.714;2024-01-15T07:15:26;5.53;;;3.13;;
8825;SDS011;4449;50.872;4.714;2024-01-15T07:17:55;3.67;;;3.37;;
8825;SDS011;4449;50.872;4.714;2024-01-15T07:20:23;6.50;;;3.22;;
8825;SDS011;4449;50.872;4.714;2024-01-15T07:22:51;3.47;;;3.10;;
8825;SDS011;4449;50.872;4.714;2024-01-15T07:25:18;6.53;;;2.95;;
8825;SDS011;4449;50.872;4.714;2024-01-15T07:27:46;3.40;;;2.73;;
8825;SDS011;4449;50.872;4.714;2024-01-15T07:30:14;5.90;;;3.30;;
8825;SDS011;4449;50.872;4.714;2024-01-15T07:32:42;5.43;;;2.83;;
8825;SDS011;4449;50.872;4.714;2024-01-15T07:35:11;4.33;;;3.20;;
8825;SDS011;4449;50.872;4.714;2024-01-15T07:37:39;4.93;;;2.90;;
8825;SDS011;4449;50.872;4.714;2024-01-15T07:40:08;3.70;;;3.17;;
8825;SDS011;4449;50.872;4.714;2024-01-15T07:42:36;7.90;;;3.87;;
8825;SDS011;4449;50.872;4.714;2024-01-15T07:45:04;4.47;;;3.40;;
8825;SDS011;4449;50.872;4.714;2024-01-15T07:47:32;5.30;;;3.20;;
8825;SDS011;4449;50.872;4.714;2024-01-15T07:50:00;5.07;;;3.90;;
8825;SDS011;4449;50.872;4.714;2024-01-15T07:52:29;6.70;;;4.20;;
8825;SDS011;4449;50.872;4.714;2024-01-15T07:54:57;5.57;;;4.00;;
8825;SDS011;4449;50.872;4.714;2024-01-15T07:57:26;5.40;;;3.93;;
8825;SDS011;4449;50.872;4.714;2024-01-15T07:59:54;8.37;;;3.90;;
8825;SDS011;4449;50.872;4.714;2024-01-15T08:02:22;10.20;;;3.97;;
8825;SDS011;4449;50.872;4.714;2024-01-15T08:04:49;8.43;;;4.43;;
8825;SDS011;4449;50.872;4.714;2024-01-15T08:07:17;5.63;;;4.27;;
8825;SDS011;4449;50.872;4.714;2024-01-15T08:09:46;6.37;;;4.30;;
8825;SDS011;4449;50.872;4.714;2024-01-15T08:12:14;8.87;;;4.30;;
8825;SDS011;4449;50.872;4.714;2024-01-15T08:14:42;4.70;;;4.17;;
8825;SDS011;4449;50.872;4.714;2024-01-15T08:17:10;7.40;;;4.37;;
8825;SDS011;4449;50.872;4.714;2024-01-15T08:19:38;4.60;;;4.20;;
8825;SDS011;4449;50.872;4.714;2024-01-15T08:22:06;4.83;;;4.37;;
8825;SDS011;4449;50.872;4.714;2024-01-15T08:24:35;6.47;;;5.13;;
8825;SDS011;4449;50.872;4.714;2024-01-15T08:27:04;9.50;;;4.73;;
8825;SDS011;4449;50.872;4.714;2024-01-15T08:29:32;6.27;;;4.50;;
8825;SDS011;4449;50.872;4.714;2024-01-15T08:32:00;10.40;;;5.50;;
8825;SDS011;4449;50.872;4.714;2024-01-15T08:34:28;8.37;;;5.07;;
8825;SDS011;4449;50.872;4.714;2024-01-15T08:36:56;11.03;;;5.43;;
8825;SDS011;4449;50.872;4.714;2024-01-15T08:39:24;7.97;;;4.90;;
8825;SDS011;4449;50.872;4.714;2024-01-15T08:41:51;6.50;;;4.77;;
8825;SDS011;4449;50.872;4.714;2024-01-15T08:44:20;6.90;;;4.53;;
8825;SDS011;4449;50.872;4.714;2024-01-15T08:46:48;7.77;;;4.70;;
8825;SDS011;4449;50.872;4.714;2024-01-15T08:49:16;5.47;;;4.10;;
8825;SDS011;4449;50.872;4.714;2024-01-15T08:51:43;6.73;;;3.83;;
8825;SDS011;4449;50.872;4.714;2024-01-15T08:54:11;9.80;;;3.93;;
8825;SDS011;4449;50.872;4.714;2024-01-15T08:56:39;7.77;;;3.57;;
8825;SDS011;4449;50.872;4.714;2024-01-15T08:59:07;8.27;;;3.50;;
8825;SDS011;4449;50.872;4.714;2024-01-15T09:01:39;9.60;;;3.67;;
8825;SDS011;4449;50.872;4.714;2024-01-15T09:04:07;6.33;;;2.73;;
8825;SDS011;4449;50.872;4.714;2024-01-15T09:06:35;7.10;;;3.10;;
8825;SDS011;4449;50.872;4.714;2024-01-15T09:09:02;3.50;;;2.83;;
8825;SDS011;4449;50.872;4.714;2024-01-15T09:11:32;6.27;;;3.33;;
8825;SDS011;4449;50.872;4.714;2024-01-15T09:13:59;7.87;;;2.73;;
8825;SDS011;4449;50.872;4.714;2024-01-15T09:16:27;7.10;;;3.17;;
8825;SDS011;4449;50.872;4.714;2024-01-15T09:18:56;11.13;;;3.47;;
8825;SDS011;4449;50.872;4.714;2024-01-15T09:34:59;6.03;;;2.57;;
8825;SDS011;4449;50.872;4.714;2024-01-15T09:37:27;5.90;;;2.60;;
8825;SDS011;4449;50.872;4.714;2024-01-15T09:39:54;4.87;;;2.90;;
8825;SDS011;4449;50.872;4.714;2024-01-15T09:42:22;5.37;;;2.53;;
8825;SDS011;4449;50.872;4.714;2024-01-15T09:44:50;4.93;;;2.63;;
8825;SDS011;4449;50.872;4.714;2024-01-15T09:47:18;4.40;;;2.70;;
8825;SDS011;4449;50.872;4.714;2024-01-15T09:49:47;4.40;;;2.30;;
8825;SDS011;4449;50.872;4.714;2024-01-15T09:52:16;7.17;;;2.60;;
8825;SDS011;4449;50.872;4.714;2024-01-15T09:54:46;3.30;;;2.70;;
8825;SDS011;4449;50.872;4.714;2024-01-15T09:57:14;5.20;;;2.30;;
8825;SDS011;4449;50.872;4.714;2024-01-15T09:59:41;4.87;;;2.37;;
8825;SDS011;4449;50.872;4.714;2024-01-15T10:02:10;6.33;;;2.80;;
8825;SDS011;4449;50.872;4.714;2024-01-15T10:04:42;4.63;;;2.47;;
8825;SDS011;4449;50.872;4.714;2024-01-15T10:07:15;4.80;;;2.43;;
8825;SDS011;4449;50.872;4.714;2024-01-15T10:09:44;6.20;;;2.90;;
8825;SDS011;4449;50.872;4.714;2024-01-15T10:12:12;6.43;;;2.30;;
8825;SDS011;4449;50.872;4.714;2024-01-15T10:14:40;5.13;;;2.77;;
8825;SDS011;4449;50.872;4.714;2024-01-15T10:17:12;9.30;;;2.83;;
8825;SDS011;4449;50.872;4.714;2024-01-15T10:19:41;8.40;;;2.67;;
8825;SDS011;4449;50.872;4.714;2024-01-15T10:22:09;5.43;;;2.60;;
8825;SDS011;4449;50.872;4.714;2024-01-15T10:24:38;7.63;;;2.57;;
8825;SDS011;4449;50.872;4.714;2024-01-15T10:27:07;6.57;;;2.40;;
8825;SDS011;4449;50.872;4.714;2024-01-15T10:29:35;5.43;;;2.80;;
8825;SDS011;4449;50.872;4.714;2024-01-15T10:32:03;7.30;;;2.70;;
8825;SDS011;4449;50.872;4.714;2024-01-15T10:34:34;5.17;;;2.47;;
8825;SDS011;4449;50.872;4.714;2024-01-15T10:37:06;7.60;;;2.20;;
8825;SDS011;4449;50.872;4.714;2024-01-15T10:39:34;2.17;;;1.93;;
8825;SDS011;4449;50.872;4.714;2024-01-15T10:42:04;4.57;;;2.30;;
8825;SDS011;4449;50.872;4.714;2024-01-15T10:44:32;5.70;;;2.40;;
8825;SDS011;4449;50.872;4.714;2024-01-15T10:47:00;5.93;;;2.07;;
8825;SDS011;4449;50.872;4.714;2024-01-15T10:49:28;5.03;;;2.10;;
8825;SDS011;4449;50.872;4.714;2024-01-15T10:51:56;4.40;;;2.97;;
8825;SDS011;4449;50.872;4.714;2024-01-15T10:54:23;4.73;;;2.47;;
8825;SDS011;4449;50.872;4.714;2024-01-15T10:56:52;4.80;;;2.47;;
8825;SDS011;4449;50.872;4.714;2024-01-15T10:59:21;5.90;;;2.50;;
8825;SDS011;4449;50.872;4.714;2024-01-15T11:01:49;7.27;;;2.43;;
8825;SDS011;4449;50.872;4.714;2024-01-15T11:04:19;4.17;;;1.93;;
8825;SDS011;4449;50.872;4.714;2024-01-15T11:06:51;6.10;;;2.53;;
8825;SDS011;4449;50.872;4.714;2024-01-15T11:09:20;3.33;;;2.13;;
8825;SDS011;4449;50.872;4.714;2024-01-15T11:11:47;2.40;;;2.20;;
8825;SDS011;4449;50.872;4.714;2024-01-15T11:17:15;4.93;;;2.00;;
8825;SDS011;4449;50.872;4.714;2024-01-15T11:19:43;5.77;;;2.00;;
8825;SDS011;4449;50.872;4.714;2024-01-15T12:20:10;4.93;;;1.70;;
8825;SDS011;4449;50.872;4.714;2024-01-15T12:22:39;4.37;;;1.70;;
8825;SDS011;4449;50.872;4.714;2024-01-15T12:25:07;5.87;;;1.90;;
8825;SDS011;4449;50.872;4.714;2024-01-15T12:27:34;9.73;;;2.23;;
8825;SDS011;4449;50.872;4.714;2024-01-15T12:30:02;7.37;;;2.00;;
8825;SDS011;4449;50.872;4.714;2024-01-15T12:32:30;4.13;;;2.47;;
8825;SDS011;4449;50.872;4.714;2024-01-15T12:34:58;4.60;;;1.83;;
8825;SDS011;4449;50.872;4.714;2024-01-15T12:37:27;3.33;;;1.70;;
8825;SDS011;4449;50.872;4.714;2024-01-15T12:39:56;2.83;;;1.87;;
8825;SDS011;4449;50.872;4.714;2024-01-15T12:42:27;4.30;;;1.77;;
8825;SDS011;4449;50.872;4.714;2024-01-15T12:44:55;6.13;;;1.97;;
8825;SDS011;4449;50.872;4.714;2024-01-15T12:47:23;7.30;;;3.07;;
8825;SDS011;4449;50.872;4.714;2024-01-15T12:49:51;8.30;;;2.07;;
8825;SDS011;4449;50.872;4.714;2024-01-15T12:52:20;4.20;;;1.80;;
8825;SDS011;4449;50.872;4.714;2024-01-15T12:54:49;4.43;;;2.27;;
8825;SDS011;4449;50.872;4.714;2024-01-15T12:57:17;8.87;;;2.63;;
8825;SDS011;4449;50.872;4.714;2024-01-15T12:59:45;4.50;;;1.93;;
8825;SDS011;4449;50.872;4.714;2024-01-15T13:02:14;5.63;;;2.30;;
8825;SDS011;4449;50.872;4.714;2024-01-15T13:04:42;8.10;;;2.60;;
8825;SDS011;4449;50.872;4.714;2024-01-15T13:07:09;3.70;;;2.00;;
8825;SDS011;4449;50.872;4.714;2024-01-15T13:09:37;5.13;;;2.00;;
8825;SDS011;4449;50.872;4.714;2024-01-15T13:12:07;5.60;;;2.00;;
8825;SDS011;4449;50.872;4.714;2024-01-15T13:14:34;7.40;;;2.63;;
8825;SDS011;4449;50.872;4.714;2024-01-15T13:17:03;7.63;;;2.87;;
8825;SDS011;4449;50.872;4.714;2024-01-15T13:19:31;13.03;;;2.33;;
8825;SDS011;4449;50.872;4.714;2024-01-15T13:21:59;7.80;;;1.70;;
8825;SDS011;4449;50.872;4.714;2024-01-15T13:24:27;3.47;;;1.40;;
8825;SDS011;4449;50.872;4.714;2024-01-15T13:26:54;1.33;;;1.33;;
8825;SDS011;4449;50.872;4.714;2024-01-15T13:29:24;4.20;;;1.60;;
8825;SDS011;4449;50.872;4.714;2024-01-15T13:31:51;3.53;;;1.90;;
8825;SDS011;4449;50.872;4.714;2024-01-15T13:34:19;1.60;;;1.50;;
8825;SDS011;4449;50.872;4.714;2024-01-15T13:36:47;1.63;;;1.43;;
8825;SDS011;4449;50.872;4.714;2024-01-15T13:39:15;3.53;;;1.37;;
8825;SDS011;4449;50.872;4.714;2024-01-15T13:41:45;1.67;;;1.47;;
8825;SDS011;4449;50.872;4.714;2024-01-15T13:44:13;6.20;;;2.10;;
8825;SDS011;4449;50.872;4.714;2024-01-15T13:46:42;6.87;;;2.43;;
8825;SDS011;4449;50.872;4.714;2024-01-15T13:49:10;16.10;;;3.57;;
8825;SDS011;4449;50.872;4.714;2024-01-15T13:51:38;12.97;;;2.67;;
8825;SDS011;4449;50.872;4.714;2024-01-15T13:54:05;5.83;;;1.97;;
8825;SDS011;4449;50.872;4.714;2024-01-15T13:56:34;2.03;;;1.33;;
8825;SDS011;4449;50.872;4.714;2024-01-15T13:59:01;1.50;;;1.50;;
8825;SDS011;4449;50.872;4.714;2024-01-15T14:01:31;2.93;;;1.90;;
8825;SDS011;4449;50.872;4.714;2024-01-15T14:04:00;2.43;;;2.10;;
8825;SDS011;4449;50.872;4.714;2024-01-15T14:06:28;1.30;;;1.30;;
8825;SDS011;4449;50.872;4.714;2024-01-15T14:08:55;1.10;;;1.10;;
8825;SDS011;4449;50.872;4.714;2024-01-15T14:11:23;1.23;;;1.20;;
8825;SDS011;4449;50.872;4.714;2024-01-15T14:13:51;2.23;;;1.40;;
8825;SDS011;4449;50.872;4.714;2024-01-15T14:16:19;2.43;;;1.20;;
8825;SDS011;4449;50.872;4.714;2024-01-15T14:18:46;1.43;;;1.30;;
8825;SDS011;4449;50.872;4.714;2024-01-15T14:21:16;1.20;;;1.20;;
8825;SDS011;4449;50.872;4.714;2024-01-15T14:23:43;1.23;;;1.23;;
8825;SDS011;4449;50.872;4.714;2024-01-15T14:26:11;2.23;;;1.67;;
8825;SDS011;4449;50.872;4.714;2024-01-15T14:28:39;2.37;;;1.37;;
8825;SDS011;4449;50.872;4.714;2024-01-15T14:31:06;3.00;;;1.80;;
8825;SDS011;4449;50.872;4.714;2024-01-15T14:33:34;2.40;;;1.60;;
8825;SDS011;4449;50.872;4.714;2024-01-15T14:36:02;1.30;;;1.20;;
8825;SDS011;4449;50.872;4.714;2024-01-15T14:38:32;5.63;;;1.67;;
8825;SDS011;4449;50.872;4.714;2024-01-15T14:41:00;1.63;;;1.33;;
8825;SDS011;4449;50.872;4.714;2024-01-15T14:43:28;1.93;;;1.30;;
8825;SDS011;4449;50.872;4.714;2024-01-15T14:45:55;1.77;;;1.40;;
8825;SDS011;4449;50.872;4.714;2024-01-15T14:48:23;2.33;;;1.87;;
8825;SDS011;4449;50.872;4.714;2024-01-15T14:50:51;3.23;;;1.80;;
8825;SDS011;4449;50.872;4.714;2024-01-15T14:53:19;1.47;;;1.37;;
8825;SDS011;4449;50.872;4.714;2024-01-15T14:55:48;1.50;;;1.30;;
8825;SDS011;4449;50.872;4.714;2024-01-15T14:58:16;2.53;;;1.47;;
8825;SDS011;4449;50.872;4.714;2024-01-15T15:00:44;2.70;;;1.33;;
8825;SDS011;4449;50.872;4.714;2024-01-15T15:03:12;1.80;;;1.40;;
8825;SDS011;4449;50.872;4.714;2024-01-15T15:05:41;3.90;;;1.80;;
8825;SDS011;4449;50.872;4.714;2024-01-15T15:08:08;2.93;;;1.83;;
8825;SDS011;4449;50.872;4.714;2024-01-15T15:10:37;3.03;;;2.10;;
8825;SDS011;4449;50.872;4.714;2024-01-15T15:13:07;2.40;;;1.77;;
8825;SDS011;4449;50.872;4.714;2024-01-15T15:15:35;2.53;;;2.30;;
8825;SDS011;4449;50.872;4.714;2024-01-15T15:18:03;3.43;;;2.53;;
8825;SDS011;4449;50.872;4.714;2024-01-15T15:20:31;4.80;;;2.60;;
8825;SDS011;4449;50.872;4.714;2024-01-15T15:22:58;2.83;;;2.50;;
8825;SDS011;4449;50.872;4.714;2024-01-15T15:25:26;5.50;;;2.90;;
8825;SDS011;4449;50.872;4.714;2024-01-15T15:27:54;4.73;;;2.53;;
8825;SDS011;4449;50.872;4.714;2024-01-15T15:30:23;6.77;;;2.70;;
8825;SDS011;4449;50.872;4.714;2024-01-15T15:32:51;4.93;;;2.90;;
8825;SDS011;4449;50.872;4.714;2024-01-15T15:50:39;4.60;;;2.40;;
8825;SDS011;4449;50.872;4.714;2024-01-15T15:53:07;8.67;;;2.57;;
8825;SDS011;4449;50.872;4.714;2024-01-15T15:55:34;5.97;;;2.60;;
8825;SDS011;4449;50.872;4.714;2024-01-15T15:58:02;9.77;;;3.00;;
8825;SDS011;4449;50.872;4.714;2024-01-15T16:00:29;4.77;;;2.37;;
8825;SDS011;4449;50.872;4.714;2024-01-15T16:02:56;5.83;;;2.50;;
8825;SDS011;4449;50.872;4.714;2024-01-15T16:05:24;6.60;;;3.43;;
8825;SDS011;4449;50.872;4.714;2024-01-15T16:07:52;4.90;;;2.57;;
8825;SDS011;4449;50.872;4.714;2024-01-15T16:10:20;7.60;;;3.07;;
8825;SDS011;4449;50.872;4.714;2024-01-15T16:12:48;5.63;;;2.67;;
8825;SDS011;4449;50.872;4.714;2024-01-15T16:15:19;7.03;;;2.60;;
8825;SDS011;4449;50.872;4.714;2024-01-15T16:17:47;7.63;;;2.60;;
8825;SDS011;4449;50.872;4.714;2024-01-15T16:20:15;5.17;;;2.57;;
8825;SDS011;4449;50.872;4.714;2024-01-15T16:22:43;6.43;;;2.70;;
8825;SDS011;4449;50.872;4.714;2024-01-15T16:25:12;5.93;;;2.40;;
8825;SDS011;4449;50.872;4.714;2024-01-15T16:27:40;7.80;;;2.70;;
8825;SDS011;4449;50.872;4.714;2024-01-15T16:30:08;3.73;;;2.30;;
8825;SDS011;4449;50.872;4.714;2024-01-15T16:32:36;9.77;;;2.90;;
8825;SDS011;4449;50.872;4.714;2024-01-15T16:35:04;8.30;;;2.33;;
8825;SDS011;4449;50.872;4.714;2024-01-15T16:37:32;4.80;;;2.53;;
8825;SDS011;4449;50.872;4.714;2024-01-15T16:40:00;4.63;;;2.90;;
8825;SDS011;4449;50.872;4.714;2024-01-15T16:42:29;4.07;;;2.73;;
8825;SDS011;4449;50.872;4.714;2024-01-15T16:44:57;7.30;;;2.67;;